createdAt,value
2023-03-13T00:00:37.608Z,1.3
2023-03-13T00:01:45.319Z,1.2
2023-03-13T00:02:54.930Z,1
2023-03-13T00:04:02.591Z,1.4
2023-03-13T00:05:12.300Z,1.3
2023-03-13T00:06:21.928Z,1.4
2023-03-13T00:07:29.773Z,1.5
2023-03-13T00:08:39.466Z,1.5
2023-03-13T00:09:48.184Z,1.6
2023-03-13T00:10:57.839Z,1.5
2023-03-13T00:12:06.537Z,1.6
2023-03-13T00:13:15.206Z,1.7
2023-03-13T00:14:24.979Z,1.3
2023-03-13T00:15:34.672Z,1.2
2023-03-13T00:16:43.435Z,1.1
2023-03-13T00:17:52.036Z,1.2
2023-03-13T00:19:01.754Z,0.8
2023-03-13T00:20:09.434Z,0.9
2023-03-13T00:21:18.110Z,0.8
2023-03-13T00:22:27.849Z,0.8
2023-03-13T00:23:36.534Z,0.8
2023-03-13T00:24:46.192Z,0.6
2023-03-13T00:25:54.848Z,0.6
2023-03-13T00:27:03.598Z,0.6
2023-03-13T00:28:13.279Z,0.6
2023-03-13T00:29:21.946Z,0.5
2023-03-13T00:30:30.685Z,0.9
2023-03-13T00:31:40.343Z,1
2023-03-13T00:32:50.046Z,1
2023-03-13T00:33:59.667Z,1.3
2023-03-13T00:35:08.336Z,1.5
2023-03-13T00:36:17.022Z,1.9
2023-03-13T00:37:26.807Z,2.1
2023-03-13T00:38:35.472Z,2.1
2023-03-13T00:39:44.127Z,2.5
2023-03-13T00:40:53.820Z,2.9
2023-03-13T00:42:01.557Z,2.3
2023-03-13T00:43:11.239Z,1.3
2023-03-13T00:44:19.897Z,1
2023-03-13T00:45:28.647Z,1
2023-03-13T00:46:38.385Z,1
2023-03-13T00:47:46.044Z,1.2
2023-03-13T00:48:55.740Z,1.3
2023-03-13T00:50:05.397Z,1.3
2023-03-13T00:51:15.095Z,1.5
2023-03-13T00:52:24.819Z,1.4
2023-03-13T00:53:34.518Z,1.3
2023-03-13T00:54:43.185Z,1.3
2023-03-13T00:55:51.840Z,1.2
2023-03-13T00:57:01.558Z,1.2
2023-03-13T00:58:11.251Z,1.2
2023-03-13T00:59:19.920Z,1
2023-03-13T01:00:28.601Z,0.7
2023-03-13T01:01:38.294Z,0.7
2023-03-13T01:02:47.110Z,0.7
2023-03-13T01:03:55.662Z,0.6
2023-03-13T01:05:05.332Z,0.6
2023-03-13T01:06:13.974Z,0.7
2023-03-13T01:07:22.673Z,0.7
2023-03-13T01:08:32.466Z,0.9
2023-03-13T01:09:40.141Z,0.8
2023-03-13T01:10:49.852Z,0.8
2023-03-13T01:11:59.574Z,0.8
2023-03-13T01:13:08.275Z,1.1
2023-03-13T01:14:17.955Z,1
2023-03-13T01:15:26.658Z,1
2023-03-13T01:16:35.427Z,0.9
2023-03-13T01:17:45.228Z,1.1
2023-03-13T01:18:53.843Z,0.9
2023-03-13T01:20:03.589Z,1
2023-03-13T01:21:12.270Z,0.9
2023-03-13T01:22:21.023Z,0.8
2023-03-13T01:23:30.708Z,0.8
2023-03-13T01:24:40.376Z,0.6
2023-03-13T01:25:49.062Z,0.5
2023-03-13T01:26:58.724Z,0.5
2023-03-13T01:28:06.687Z,0.5
2023-03-13T01:29:16.395Z,0.8
2023-03-13T01:30:25.132Z,0.6
2023-03-13T01:31:32.847Z,0.7
2023-03-13T01:32:42.580Z,0.6
2023-03-13T01:33:51.242Z,0.5
2023-03-13T01:34:59.947Z,0.6
2023-03-13T01:36:09.617Z,0.6
2023-03-13T01:37:19.356Z,0.6
2023-03-13T01:38:29.042Z,0.5
2023-03-13T01:39:38.699Z,0.6
2023-03-13T01:40:47.360Z,0.6
2023-03-13T01:41:57.132Z,0.6
2023-03-13T01:43:06.326Z,0.6
2023-03-13T01:44:14.446Z,0.8
2023-03-13T01:45:24.157Z,0.7
2023-03-13T01:46:31.907Z,0.6
2023-03-13T01:47:41.558Z,0.7
2023-03-13T01:48:50.229Z,0.6
2023-03-13T01:49:57.969Z,0.5
2023-03-13T01:51:07.671Z,0.6
2023-03-13T01:52:16.417Z,0.6
2023-03-13T01:53:26.226Z,0.8
2023-03-13T01:54:35.880Z,0.6
2023-03-13T01:55:44.591Z,0.6
2023-03-13T01:56:54.409Z,0.6
2023-03-13T01:58:03.102Z,1
2023-03-13T01:59:12.756Z,0.6
2023-03-13T02:00:23.467Z,0.8
2023-03-13T02:01:31.206Z,0.6
2023-03-13T02:02:39.961Z,0.8
2023-03-13T02:03:49.511Z,0.5
2023-03-13T02:04:58.210Z,0.7
2023-03-13T02:06:07.888Z,0.6
2023-03-13T02:07:16.742Z,0.7
2023-03-13T02:08:25.382Z,0.7
2023-03-13T02:09:35.052Z,0.8
2023-03-13T02:10:44.746Z,0.6
2023-03-13T02:11:52.406Z,0.6
2023-03-13T02:13:02.175Z,0.7
2023-03-13T02:14:10.845Z,0.8
2023-03-13T02:15:20.567Z,0.7
2023-03-13T02:16:30.329Z,0.7
2023-03-13T02:17:37.993Z,1
2023-03-13T02:18:46.784Z,1
2023-03-13T02:19:56.428Z,0.7
2023-03-13T02:21:05.133Z,0.8
2023-03-13T02:22:15.714Z,1.1
2023-03-13T02:23:25.415Z,0.9
2023-03-13T02:24:34.097Z,0.8
2023-03-13T02:25:43.779Z,1
2023-03-13T02:26:52.476Z,1.3
2023-03-13T02:28:01.189Z,1.1
2023-03-13T02:29:10.871Z,0.9
2023-03-13T02:30:19.532Z,1
2023-03-13T02:31:29.247Z,0.8
2023-03-13T02:32:39.034Z,1.2
2023-03-13T02:33:46.833Z,0.8
2023-03-13T02:34:56.523Z,1.2
2023-03-13T02:36:05.355Z,1.2
2023-03-13T02:37:15.036Z,1
2023-03-13T02:38:24.745Z,1
2023-03-13T02:39:33.459Z,1.3
2023-03-13T02:40:43.142Z,0.9
2023-03-13T02:41:51.860Z,1.4
2023-03-13T02:42:59.519Z,1.2
2023-03-13T02:44:09.232Z,1.3
2023-03-13T02:45:16.896Z,1
2023-03-13T02:46:25.631Z,1.1
2023-03-13T02:47:35.366Z,1.1
2023-03-13T02:48:43.093Z,1
2023-03-13T02:49:52.765Z,1.2
2023-03-13T02:51:01.432Z,0.9
2023-03-13T02:52:09.099Z,1.1
2023-03-13T02:53:18.807Z,0.9
2023-03-13T02:54:26.490Z,1
2023-03-13T02:55:35.200Z,1
2023-03-13T02:56:44.912Z,0.8
2023-03-13T02:57:54.626Z,1
2023-03-13T02:59:04.322Z,0.9
2023-03-13T03:00:14.035Z,1.2
2023-03-13T03:01:22.715Z,0.7
2023-03-13T03:02:32.522Z,0.7
2023-03-13T03:03:40.332Z,0.8
2023-03-13T03:04:49.976Z,1
2023-03-13T03:05:59.737Z,1.1
2023-03-13T03:07:07.533Z,1.2
2023-03-13T03:08:17.270Z,0.8
2023-03-13T03:09:25.991Z,1
2023-03-13T03:10:34.691Z,1
2023-03-13T03:11:44.414Z,0.9
2023-03-13T03:12:53.123Z,0.8
2023-03-13T03:14:02.858Z,2.3
2023-03-13T03:15:12.514Z,2.3
2023-03-13T03:16:20.237Z,1.3
2023-03-13T03:17:29.891Z,1.4
2023-03-13T03:18:39.620Z,1.4
2023-03-13T03:19:47.292Z,1
2023-03-13T03:20:56.979Z,1
2023-03-13T03:22:05.687Z,1.1
2023-03-13T03:23:14.365Z,1
2023-03-13T03:24:24.072Z,1.1
2023-03-13T03:25:33.745Z,1.1
2023-03-13T03:26:43.460Z,1.2
2023-03-13T03:27:52.479Z,0.9
2023-03-13T03:29:02.144Z,1.1
2023-03-13T03:30:12.003Z,0.9
2023-03-13T03:31:21.850Z,1
2023-03-13T03:32:31.637Z,0.9
2023-03-13T03:33:41.377Z,1
2023-03-13T03:34:50.151Z,0.6
2023-03-13T03:36:00.025Z,0.8
2023-03-13T03:37:09.739Z,0.9
2023-03-13T03:38:18.419Z,0.7
2023-03-13T03:39:28.119Z,0.7
2023-03-13T03:40:35.775Z,0.6
2023-03-13T03:41:44.469Z,0.7
2023-03-13T03:42:54.175Z,0.9
2023-03-13T03:44:02.884Z,0.8
2023-03-13T03:45:12.562Z,0.8
2023-03-13T03:46:21.359Z,0.7
2023-03-13T03:47:30.084Z,0.7
2023-03-13T03:48:39.654Z,0.8
2023-03-13T03:49:48.370Z,0.7
2023-03-13T03:50:59.035Z,1
2023-03-13T03:52:08.705Z,0.7
2023-03-13T03:53:16.372Z,0.6
2023-03-13T03:54:26.092Z,0.8
2023-03-13T03:55:35.738Z,1
2023-03-13T03:56:44.439Z,0.7
2023-03-13T03:57:54.108Z,0.9
2023-03-13T03:59:01.801Z,0.6
2023-03-13T04:00:10.458Z,0.7
2023-03-13T04:01:27.801Z,0.7
2023-03-13T04:02:37.669Z,0.6
2023-03-13T04:03:47.411Z,0.7
2023-03-13T04:04:57.105Z,0.6
2023-03-13T04:06:06.841Z,0.6
2023-03-13T04:07:15.605Z,0.7
2023-03-13T04:08:24.354Z,0.7
2023-03-13T04:09:34.112Z,0.6
2023-03-13T04:10:43.812Z,0.6
2023-03-13T04:11:53.569Z,0.6
2023-03-13T04:13:01.343Z,0.7
2023-03-13T04:14:12.033Z,0.7
2023-03-13T04:15:21.695Z,0.7
2023-03-13T04:16:31.449Z,0.6
2023-03-13T04:17:41.037Z,0.6
2023-03-13T04:18:49.725Z,0.7
2023-03-13T04:19:58.472Z,0.6
2023-03-13T04:21:07.169Z,0.7
2023-03-13T04:22:15.820Z,0.6
2023-03-13T04:23:24.482Z,0.9
2023-03-13T04:24:34.180Z,0.6
2023-03-13T04:25:42.838Z,0.9
2023-03-13T04:26:52.520Z,0.9
2023-03-13T04:28:01.209Z,0.7
2023-03-13T04:29:08.823Z,0.7
2023-03-13T04:30:18.807Z,0.6
2023-03-13T04:31:27.185Z,0.6
2023-03-13T04:32:36.889Z,1
2023-03-13T04:33:46.512Z,0.6
2023-03-13T04:34:54.367Z,0.9
2023-03-13T04:36:05.223Z,0.9
2023-03-13T04:37:14.929Z,0.8
2023-03-13T04:38:23.702Z,0.8
2023-03-13T04:39:33.535Z,0.9
2023-03-13T04:40:42.300Z,0.9
2023-03-13T04:41:52.057Z,1.1
2023-03-13T04:43:01.824Z,1.1
2023-03-13T04:44:10.555Z,1.1
2023-03-13T04:45:20.338Z,1
2023-03-13T04:46:29.165Z,1.2
2023-03-13T04:47:37.838Z,1
2023-03-13T04:48:47.504Z,1
2023-03-13T04:49:56.207Z,1
2023-03-13T04:51:05.891Z,0.9
2023-03-13T04:52:15.573Z,1
2023-03-13T04:53:24.237Z,0.9
2023-03-13T04:54:34.015Z,0.8
2023-03-13T04:55:43.771Z,0.8
2023-03-13T04:56:51.437Z,0.9
2023-03-13T04:58:00.131Z,1
2023-03-13T04:59:07.775Z,0.8
2023-03-13T05:00:16.514Z,0.9
2023-03-13T05:01:26.210Z,0.9
2023-03-13T05:02:33.885Z,1
2023-03-13T05:03:43.528Z,0.9
2023-03-13T05:04:52.523Z,0.9
2023-03-13T05:06:00.955Z,1.1
2023-03-13T05:07:10.624Z,1
2023-03-13T05:08:19.483Z,1.2
2023-03-13T05:09:28.151Z,1
2023-03-13T05:10:38.493Z,1.1
2023-03-13T05:11:47.274Z,1
2023-03-13T05:12:57.598Z,1
2023-03-13T05:14:07.236Z,1
2023-03-13T05:15:16.027Z,0.9
2023-03-13T05:16:25.959Z,1.1
2023-03-13T05:17:34.491Z,1
2023-03-13T05:18:44.262Z,1
2023-03-13T05:19:54.089Z,1
2023-03-13T05:21:03.813Z,0.9
2023-03-13T05:22:13.509Z,0.7
2023-03-13T05:23:22.189Z,0.8
2023-03-13T05:24:30.830Z,0.7
2023-03-13T05:25:39.510Z,0.7
2023-03-13T05:26:47.147Z,0.7
2023-03-13T05:27:54.853Z,0.8
2023-03-13T05:29:04.520Z,0.7
2023-03-13T05:30:12.174Z,0.9
2023-03-13T05:31:22.023Z,0.7
2023-03-13T05:32:31.552Z,0.7
2023-03-13T05:33:39.141Z,0.9
2023-03-13T05:34:48.824Z,1
2023-03-13T05:35:56.528Z,0.9
2023-03-13T05:37:06.140Z,1
2023-03-13T05:38:15.797Z,0.9
2023-03-13T05:39:24.471Z,0.9
2023-03-13T05:40:34.137Z,0.9
2023-03-13T05:41:42.796Z,0.9
2023-03-13T05:42:50.440Z,0.9
2023-03-13T05:44:00.101Z,0.9
2023-03-13T05:45:08.754Z,0.7
2023-03-13T05:46:19.572Z,1
2023-03-13T05:47:29.340Z,0.9
2023-03-13T05:48:38.116Z,0.9
2023-03-13T05:49:47.860Z,1.1
2023-03-13T05:50:56.614Z,1.1
2023-03-13T05:52:05.406Z,1.3
2023-03-13T05:53:15.136Z,1.3
2023-03-13T05:54:24.850Z,1.5
2023-03-13T05:55:34.596Z,1.3
2023-03-13T05:56:44.243Z,1.3
2023-03-13T05:57:52.917Z,1.1
2023-03-13T05:59:02.560Z,1.1
2023-03-13T06:00:12.198Z,1
2023-03-13T06:01:20.863Z,1.2
2023-03-13T06:02:30.515Z,1.2
2023-03-13T06:03:40.461Z,0.7
2023-03-13T06:04:48.994Z,0.6
2023-03-13T06:05:58.517Z,0.5
2023-03-13T06:07:07.201Z,0.6
2023-03-13T06:08:16.835Z,0.5
2023-03-13T06:09:26.493Z,0.7
2023-03-13T06:10:35.156Z,0.8
2023-03-13T06:11:44.867Z,0.8
2023-03-13T06:12:54.533Z,0.9
2023-03-13T06:14:02.174Z,0.9
2023-03-13T06:15:12.804Z,0.8
2023-03-13T06:16:21.559Z,0.7
2023-03-13T06:17:31.133Z,0.7
2023-03-13T06:18:40.784Z,1
2023-03-13T06:19:48.486Z,0.9
2023-03-13T06:20:59.978Z,0.9
2023-03-13T06:22:08.681Z,1.1
2023-03-13T06:23:25.292Z,0.5
2023-03-13T06:24:35.085Z,0.4
2023-03-13T06:25:44.818Z,0.5
2023-03-13T06:26:53.630Z,0.6
2023-03-13T06:28:03.379Z,0.7
2023-03-13T06:29:11.115Z,2.3
2023-03-13T06:30:20.841Z,0.5
2023-03-13T06:31:30.626Z,0.4
2023-03-13T06:32:39.366Z,0.4
2023-03-13T06:33:50.387Z,0.5
2023-03-13T06:34:59.569Z,0.4
2023-03-13T06:36:08.336Z,0.5
2023-03-13T06:37:17.940Z,0.4
2023-03-13T06:38:25.610Z,1.4
2023-03-13T06:39:35.367Z,1.3
2023-03-13T06:40:46.982Z,1.1
2023-03-13T06:41:55.788Z,0.9
2023-03-13T06:43:05.444Z,0.7
2023-03-13T06:44:14.090Z,0.6
2023-03-13T06:45:21.774Z,1.3
2023-03-13T06:46:31.521Z,0.4
2023-03-13T06:47:40.276Z,0.4
2023-03-13T06:48:49.958Z,0.4
2023-03-13T06:49:59.645Z,0.4
2023-03-13T06:51:07.367Z,0.5
2023-03-13T06:52:18.370Z,0.9
2023-03-13T06:53:26.710Z,0.9
2023-03-13T06:54:35.753Z,1.1
2023-03-13T06:55:54.708Z,0.9
2023-03-13T06:57:04.431Z,1.2
2023-03-13T06:58:28.992Z,1.3
2023-03-13T06:59:24.896Z,1.2
2023-03-13T07:00:34.783Z,1.5
2023-03-13T07:01:49.546Z,1.3
2023-03-13T07:02:59.264Z,0.9
2023-03-13T07:04:09.045Z,1.8
2023-03-13T07:05:16.827Z,1.4
2023-03-13T07:06:26.605Z,1.3
2023-03-13T07:07:36.320Z,1.1
2023-03-13T07:08:44.069Z,1
2023-03-13T07:09:53.743Z,1
2023-03-13T07:11:02.444Z,0.6
2023-03-13T07:12:11.112Z,0.7
2023-03-13T07:13:20.789Z,0.4
2023-03-13T07:14:28.469Z,0.5
2023-03-13T07:15:38.133Z,0.4
2023-03-13T07:16:45.985Z,0.5
2023-03-13T07:17:53.523Z,0.4
2023-03-13T07:19:03.224Z,0.3
2023-03-13T07:20:10.965Z,0.4
2023-03-13T07:21:20.565Z,0.4
2023-03-13T07:22:30.273Z,0.5
2023-03-13T07:23:38.954Z,0.5
2023-03-13T07:24:48.655Z,0.4
2023-03-13T07:25:58.250Z,0.5
2023-03-13T07:27:08.365Z,0.6
2023-03-13T07:28:16.565Z,0.6
2023-03-13T07:29:24.234Z,1
2023-03-13T07:30:33.914Z,0.6
2023-03-13T07:31:43.763Z,0.7
2023-03-13T07:32:51.575Z,0.8
2023-03-13T07:34:01.230Z,0.5
2023-03-13T07:35:09.976Z,0.5
2023-03-13T07:36:17.862Z,1.3
2023-03-13T07:37:27.567Z,1
2023-03-13T07:38:36.347Z,0.6
2023-03-13T07:39:46.151Z,0.8
2023-03-13T07:40:55.911Z,0.9
2023-03-13T07:42:04.822Z,0.9
2023-03-13T07:43:14.539Z,0.8
2023-03-13T07:44:24.217Z,0.7
2023-03-13T07:45:31.917Z,0.8
2023-03-13T07:46:41.576Z,0.7
2023-03-13T07:47:50.245Z,0.6
2023-03-13T07:48:58.986Z,0.6
2023-03-13T07:50:08.742Z,0.7
2023-03-13T07:51:17.420Z,0.6
2023-03-13T07:52:27.149Z,0.8
2023-03-13T07:53:35.922Z,1.8
2023-03-13T07:54:43.509Z,2.9
2023-03-13T07:55:53.212Z,0.8
2023-03-13T07:57:01.901Z,0.6
2023-03-13T07:58:10.574Z,0.6
2023-03-13T07:59:20.262Z,0.6
2023-03-13T08:00:29.966Z,0.9
2023-03-13T08:01:38.653Z,3.9
2023-03-13T08:02:48.331Z,1
2023-03-13T08:03:56.995Z,0.5
2023-03-13T08:05:05.671Z,0.4
2023-03-13T08:06:15.638Z,0.4
2023-03-13T08:07:23.413Z,0.4
2023-03-13T08:08:33.137Z,0.4
2023-03-13T08:09:42.092Z,0.3
2023-03-13T08:10:51.817Z,0.5
2023-03-13T08:12:01.609Z,0.4
2023-03-13T08:13:10.420Z,0.7
2023-03-13T08:14:19.250Z,0.4
2023-03-13T08:15:29.008Z,0.3
2023-03-13T08:16:37.843Z,0.5
2023-03-13T08:17:47.529Z,0.4
2023-03-13T08:18:56.212Z,0.4
2023-03-13T08:20:04.969Z,0.5
2023-03-13T08:21:14.648Z,0.6
2023-03-13T08:22:23.310Z,0.7
2023-03-13T08:23:33.006Z,0.7
2023-03-13T08:24:42.678Z,0.6
2023-03-13T08:25:50.360Z,0.6
2023-03-13T08:27:00.028Z,0.7
2023-03-13T08:28:09.701Z,0.5
2023-03-13T08:29:18.405Z,0.4
2023-03-13T08:30:28.107Z,0.6
2023-03-13T08:31:37.790Z,0.4
2023-03-13T08:32:47.502Z,0.4
2023-03-13T08:33:57.132Z,0.3
2023-03-13T08:35:05.810Z,0.3
2023-03-13T08:36:15.640Z,0.3
2023-03-13T08:37:24.302Z,0.2
2023-03-13T08:38:32.041Z,0.2
2023-03-13T08:39:41.718Z,0.3
2023-03-13T08:40:49.994Z,0.3
2023-03-13T08:41:59.741Z,0.2
2023-03-13T08:43:09.592Z,0.3
2023-03-13T08:44:17.456Z,0.3
2023-03-13T08:45:27.276Z,0.4
2023-03-13T08:46:36.093Z,0.3
2023-03-13T08:47:45.889Z,0.2
2023-03-13T08:48:55.616Z,0.3
2023-03-13T08:50:04.353Z,0.3
2023-03-13T08:51:13.116Z,0.2
2023-03-13T08:52:22.855Z,0.3
2023-03-13T08:53:32.603Z,0.4
2023-03-13T08:54:42.283Z,0.2
2023-03-13T08:55:50.932Z,0.3
2023-03-13T08:56:58.601Z,0.2
2023-03-13T08:58:08.318Z,0.1
2023-03-13T08:59:15.987Z,0.3
2023-03-13T09:00:24.679Z,0.4
2023-03-13T09:01:34.285Z,0.3
2023-03-13T09:02:41.999Z,0.2
2023-03-13T09:03:51.801Z,0.3
2023-03-13T09:05:01.349Z,0.3
2023-03-13T09:06:11.089Z,0.4
2023-03-13T09:07:21.772Z,0.5
2023-03-13T09:08:30.496Z,0.5
2023-03-13T09:09:40.224Z,0.3
2023-03-13T09:10:48.888Z,0.3
2023-03-13T09:11:56.551Z,0.4
2023-03-13T09:13:06.321Z,0.5
2023-03-13T09:14:15.014Z,0.4
2023-03-13T09:15:22.678Z,0.3
2023-03-13T09:16:32.426Z,0.2
2023-03-13T09:17:42.187Z,0.2
2023-03-13T09:18:51.063Z,0.1
2023-03-13T09:20:01.384Z,0.2
2023-03-13T09:21:09.676Z,0.3
2023-03-13T09:22:19.394Z,0.3
2023-03-13T09:23:29.154Z,0.3
2023-03-13T09:24:37.871Z,0.4
2023-03-13T09:25:47.634Z,0.3
2023-03-13T09:27:01.212Z,0.2
2023-03-13T09:28:06.956Z,0.2
2023-03-13T09:29:16.631Z,0.1
2023-03-13T09:30:24.279Z,0.1
2023-03-13T09:31:33.995Z,0.1
2023-03-13T09:32:42.633Z,0.2
2023-03-13T09:33:51.296Z,0
2023-03-13T09:35:01.023Z,0.2
2023-03-13T09:36:10.722Z,0.1
2023-03-13T09:37:20.326Z,0.1
2023-03-13T09:38:30.030Z,0.1
2023-03-13T09:39:38.679Z,0.3
2023-03-13T09:40:56.600Z,0.3
2023-03-13T09:41:57.999Z,0.1
2023-03-13T09:43:05.678Z,0.1
2023-03-13T09:44:15.431Z,0.1
2023-03-13T09:45:25.084Z,0.2
2023-03-13T09:46:34.828Z,0.2
2023-03-13T09:47:44.420Z,0.1
2023-03-13T09:48:52.123Z,0.2
2023-03-13T09:50:00.802Z,0.2
2023-03-13T09:51:11.655Z,0.1
2023-03-13T09:52:22.478Z,0.2
2023-03-13T09:53:32.256Z,0.1
2023-03-13T09:54:42.014Z,0.1
2023-03-13T09:55:50.800Z,0.2
2023-03-13T09:57:00.554Z,0.1
2023-03-13T09:58:10.347Z,0.2
2023-03-13T09:59:20.283Z,0.2
2023-03-13T10:00:30.047Z,0.4
2023-03-13T10:01:38.812Z,0.1
2023-03-13T10:02:47.388Z,0
2023-03-13T10:03:57.121Z,0.1
2023-03-13T10:05:04.799Z,0.3
2023-03-13T10:06:13.440Z,0.2
2023-03-13T10:07:22.106Z,0.1
2023-03-13T10:08:31.810Z,0.7
2023-03-13T10:09:41.474Z,0.2
2023-03-13T10:10:49.142Z,0.1
2023-03-13T10:11:57.792Z,0.1
2023-03-13T10:13:07.498Z,0
2023-03-13T10:14:16.195Z,0.1
2023-03-13T10:15:25.870Z,0.1
2023-03-13T10:16:34.575Z,0.1
2023-03-13T10:17:42.195Z,0.1
2023-03-13T10:18:51.862Z,0.1
2023-03-13T10:20:01.558Z,0
2023-03-13T10:21:11.214Z,0.1
2023-03-13T10:22:20.890Z,0
2023-03-13T10:23:29.558Z,0.1
2023-03-13T10:24:39.402Z,0
2023-03-13T10:25:48.978Z,0.1
2023-03-13T10:26:56.598Z,0
2023-03-13T10:28:06.299Z,0.1
2023-03-13T10:29:15.081Z,0
2023-03-13T10:30:24.713Z,0.1
2023-03-13T10:31:34.488Z,0
2023-03-13T10:32:42.144Z,0.1
2023-03-13T10:33:51.762Z,0
2023-03-13T10:35:00.436Z,0
2023-03-13T10:36:08.181Z,0.1
2023-03-13T10:37:17.844Z,0
2023-03-13T10:38:27.506Z,0.1
2023-03-13T10:39:36.184Z,0
2023-03-13T10:40:45.887Z,0.1
2023-03-13T10:41:53.532Z,0.1
2023-03-13T10:43:03.202Z,0
2023-03-13T10:44:12.894Z,0
2023-03-13T10:45:20.658Z,0
2023-03-13T10:46:30.411Z,0.1
2023-03-13T10:47:38.996Z,0.1
2023-03-13T10:48:47.713Z,0
2023-03-13T10:49:57.345Z,0
2023-03-13T10:51:05.986Z,0
2023-03-13T10:52:15.641Z,0
2023-03-13T10:53:24.331Z,0
2023-03-13T10:54:33.031Z,0
2023-03-13T10:55:42.696Z,0
2023-03-13T10:56:52.382Z,0
2023-03-13T10:58:01.055Z,0
2023-03-13T10:59:10.702Z,0
2023-03-13T11:00:19.384Z,0
2023-03-13T11:01:28.041Z,0
2023-03-13T11:02:36.826Z,0.1
2023-03-13T11:03:45.410Z,0.1
2023-03-13T11:04:55.043Z,0.1
2023-03-13T11:06:03.709Z,0.2
2023-03-13T11:07:12.361Z,0.1
2023-03-13T11:08:22.140Z,0.1
2023-03-13T11:09:29.801Z,0
2023-03-13T11:10:39.378Z,0
2023-03-13T11:11:48.067Z,0
2023-03-13T11:12:57.818Z,0.2
2023-03-13T11:14:07.459Z,0.1
2023-03-13T11:15:14.441Z,0.1
2023-03-13T11:16:23.126Z,0
2023-03-13T11:17:32.728Z,0
2023-03-13T11:18:41.389Z,0
2023-03-13T11:19:53.414Z,0
2023-03-13T11:21:12.134Z,0.1
2023-03-13T11:22:10.457Z,0.1
2023-03-13T11:23:20.088Z,0.1
2023-03-13T11:24:28.753Z,833.20001
2023-03-13T11:25:37.410Z,0.1
2023-03-13T11:26:58.452Z,0.2
2023-03-13T11:27:55.732Z,0.1
2023-03-13T11:29:05.432Z,0
2023-03-13T11:30:15.143Z,0
2023-03-13T11:31:22.819Z,0.1
2023-03-13T11:32:32.512Z,0
2023-03-13T11:33:40.131Z,0.1
2023-03-13T11:34:48.850Z,0.3
2023-03-13T11:35:58.584Z,0.4
2023-03-13T11:37:06.190Z,0.2
2023-03-13T11:38:15.845Z,449
2023-03-13T11:39:25.507Z,999.90002
2023-03-13T11:40:33.192Z,0.1
2023-03-13T11:41:42.979Z,0.1
2023-03-13T11:42:52.562Z,0
2023-03-13T11:44:02.307Z,0
2023-03-13T11:45:12.025Z,0
2023-03-13T11:46:19.980Z,0
2023-03-13T11:47:29.327Z,0
2023-03-13T11:48:37.977Z,0
2023-03-13T11:49:46.639Z,0.1
2023-03-13T11:50:56.377Z,0
2023-03-13T11:52:04.026Z,0
2023-03-13T11:53:13.676Z,0.1
2023-03-13T11:54:23.365Z,0.3
2023-03-13T11:55:32.030Z,28.9
2023-03-13T11:56:39.723Z,0
2023-03-13T11:57:49.455Z,0
2023-03-13T11:58:58.123Z,0
2023-03-13T12:00:06.786Z,0
2023-03-13T12:01:16.549Z,0.1
2023-03-13T12:02:25.221Z,0
2023-03-13T12:03:34.848Z,0
2023-03-13T12:04:44.612Z,0.1
2023-03-13T12:05:53.171Z,0.1
2023-03-13T12:07:04.648Z,0
2023-03-13T12:08:12.483Z,0
2023-03-13T12:09:22.195Z,0.1
2023-03-13T12:10:31.920Z,0
2023-03-13T12:11:40.568Z,0
2023-03-13T12:12:50.284Z,0
2023-03-13T12:13:58.962Z,0.1
2023-03-13T12:15:06.646Z,0.1
2023-03-13T12:16:16.342Z,0
2023-03-13T12:17:25.048Z,0
2023-03-13T12:18:34.720Z,0.1
2023-03-13T12:19:44.378Z,0
2023-03-13T12:20:52.081Z,0
2023-03-13T12:22:00.838Z,0
2023-03-13T12:23:10.408Z,0
2023-03-13T12:24:19.151Z,0.1
2023-03-13T12:25:28.921Z,0
2023-03-13T12:26:36.580Z,0
2023-03-13T12:27:45.246Z,0
2023-03-13T12:28:54.937Z,0
2023-03-13T12:30:03.603Z,0
2023-03-13T12:31:13.385Z,0.1
2023-03-13T12:32:22.039Z,0
2023-03-13T12:33:31.798Z,0.1
2023-03-13T12:34:41.415Z,0.1
2023-03-13T12:35:51.158Z,0.1
2023-03-13T12:36:59.774Z,0
2023-03-13T12:38:09.426Z,0
2023-03-13T12:39:17.147Z,0
2023-03-13T12:40:26.835Z,0
2023-03-13T12:41:35.507Z,0.1
2023-03-13T12:42:43.179Z,0.1
2023-03-13T12:44:07.086Z,0.1
2023-03-13T12:45:01.508Z,0
2023-03-13T12:46:10.310Z,0.2
2023-03-13T12:47:19.887Z,0
2023-03-13T12:48:28.571Z,0
2023-03-13T12:49:38.272Z,0
2023-03-13T12:50:48.041Z,0.1
2023-03-13T12:51:55.731Z,0.1
2023-03-13T12:53:05.464Z,0.1
2023-03-13T12:54:13.157Z,0.1
2023-03-13T12:55:20.782Z,0
2023-03-13T12:56:30.494Z,0
2023-03-13T12:57:39.161Z,0
2023-03-13T12:58:48.907Z,0.1
2023-03-13T12:59:57.562Z,0.1
2023-03-13T13:01:05.299Z,0
2023-03-13T13:02:14.912Z,0
2023-03-13T13:03:24.613Z,0
2023-03-13T13:04:33.468Z,0.1
2023-03-13T13:05:43.080Z,0
2023-03-13T13:06:52.757Z,0
2023-03-13T13:08:02.416Z,0.1
2023-03-13T13:09:12.088Z,0
2023-03-13T13:10:20.739Z,0.2
2023-03-13T13:11:30.434Z,0.1
2023-03-13T13:12:40.131Z,0
2023-03-13T13:13:48.796Z,0
2023-03-13T13:14:58.466Z,0
2023-03-13T13:16:06.160Z,0.1
2023-03-13T13:17:16.491Z,0
2023-03-13T13:18:25.466Z,0.1
2023-03-13T13:19:33.120Z,0
2023-03-13T13:20:42.819Z,0
2023-03-13T13:21:52.572Z,0
2023-03-13T13:23:02.260Z,0
2023-03-13T13:24:10.905Z,0.1
2023-03-13T13:25:18.578Z,0
2023-03-13T13:26:28.227Z,0.1
2023-03-13T13:27:36.966Z,0.1
2023-03-13T13:28:44.578Z,0.2
2023-03-13T13:29:54.239Z,0.2
2023-03-13T13:31:04.020Z,0.1
2023-03-13T13:32:12.665Z,0.1
2023-03-13T13:33:22.265Z,0.1
2023-03-13T13:34:30.117Z,0
2023-03-13T13:35:39.832Z,0.1
2023-03-13T13:36:48.528Z,0.3
2023-03-13T13:37:58.257Z,0.1
2023-03-13T13:39:08.897Z,0.1
2023-03-13T13:40:16.744Z,0.1
2023-03-13T13:41:26.366Z,0.1
2023-03-13T13:42:35.978Z,0
2023-03-13T13:43:42.644Z,0
2023-03-13T13:44:52.303Z,0.1
2023-03-13T13:46:02.059Z,0.1
2023-03-13T13:47:09.645Z,0.1
2023-03-13T13:48:19.350Z,595.09997
2023-03-13T13:49:29.078Z,274.5
2023-03-13T13:50:37.737Z,999.90002
2023-03-13T13:51:47.472Z,999.90002
2023-03-13T13:52:57.165Z,9.1
2023-03-13T13:54:06.879Z,318.1
2023-03-13T13:55:16.509Z,999.90002
2023-03-13T13:56:24.156Z,804.79998
2023-03-13T13:57:33.852Z,999.90002
2023-03-13T13:58:43.503Z,999.90002
2023-03-13T13:59:51.143Z,999.90002
2023-03-13T14:01:00.861Z,547.09997
2023-03-13T14:02:10.512Z,712.90002
2023-03-13T14:03:18.184Z,958.59997
2023-03-13T14:04:27.848Z,637.5
2023-03-13T14:05:35.509Z,999.90002
2023-03-13T14:06:43.181Z,999.90002
2023-03-13T14:07:52.881Z,955.20001
2023-03-13T14:09:01.536Z,0.7
2023-03-13T14:10:11.214Z,49
2023-03-13T14:11:20.858Z,0.4
2023-03-13T14:12:29.539Z,6.6
2023-03-13T14:13:39.234Z,0.5
2023-03-13T14:14:47.895Z,0.2
2023-03-13T14:15:57.573Z,0.5
2023-03-13T14:17:07.200Z,80.5
2023-03-13T14:18:14.877Z,9.9
2023-03-13T14:19:24.540Z,0.1
2023-03-13T14:20:33.250Z,0.1
2023-03-13T14:21:40.903Z,0.4
2023-03-13T14:22:50.598Z,0.2
2023-03-13T14:23:58.260Z,0.6
2023-03-13T14:25:06.903Z,47.599998
2023-03-13T14:26:16.592Z,10.5
2023-03-13T14:27:25.225Z,0.3
2023-03-13T14:28:34.967Z,8.6
2023-03-13T14:29:44.634Z,111.9
2023-03-13T14:30:53.316Z,6.6
2023-03-13T14:32:02.967Z,36
2023-03-13T14:33:10.649Z,52.200001
2023-03-13T14:34:19.306Z,66.599998
2023-03-13T14:35:28.990Z,0.5
2023-03-13T14:36:36.641Z,154.89999
2023-03-13T14:37:46.339Z,157.39999
2023-03-13T14:38:55.039Z,93.300003
2023-03-13T14:40:03.714Z,51.299999
2023-03-13T14:41:13.388Z,297.79998
2023-03-13T14:42:23.071Z,106.5
2023-03-13T14:43:32.740Z,2
2023-03-13T14:44:42.388Z,9.6
2023-03-13T14:45:51.071Z,42.700001
2023-03-13T14:47:00.797Z,492.89999
2023-03-13T14:48:09.422Z,436.39999
2023-03-13T14:49:18.166Z,999.90002
2023-03-13T14:50:27.838Z,917.5
2023-03-13T14:51:35.438Z,300.79998
2023-03-13T14:52:44.123Z,340.6
2023-03-13T14:53:53.855Z,2.4
2023-03-13T14:55:01.598Z,6.6
2023-03-13T14:56:11.235Z,1.3
2023-03-13T14:57:19.904Z,0.2
2023-03-13T14:58:29.605Z,34.5
2023-03-13T14:59:39.295Z,1.4
2023-03-13T15:00:49.044Z,0.1
2023-03-13T15:01:58.608Z,0.2
2023-03-13T15:03:08.258Z,0.1
2023-03-13T15:04:17.057Z,0
2023-03-13T15:05:26.611Z,0.2
2023-03-13T15:06:34.275Z,0.2
2023-03-13T15:07:41.945Z,0.1
2023-03-13T15:08:51.642Z,0.3
2023-03-13T15:10:00.303Z,0.2
2023-03-13T15:11:08.986Z,0.3
2023-03-13T15:12:18.635Z,0.4
2023-03-13T15:13:26.346Z,0.2
2023-03-13T15:14:36.060Z,0.2
2023-03-13T15:15:45.694Z,105.59999
2023-03-13T15:16:53.478Z,448.70001
2023-03-13T15:18:03.078Z,329.29998
2023-03-13T15:19:11.753Z,35.799999
2023-03-13T15:20:21.420Z,19.200001
2023-03-13T15:21:31.074Z,20.4
2023-03-13T15:22:39.760Z,53.900002
2023-03-13T15:23:49.428Z,17.1
2023-03-13T15:25:07.608Z,72.5
2023-03-13T15:26:07.704Z,47
2023-03-13T15:27:17.364Z,154.89999
2023-03-13T15:28:25.016Z,157.5
2023-03-13T15:29:33.697Z,50.299999
2023-03-13T15:30:43.372Z,210.19999
2023-03-13T15:31:52.078Z,153.69999
2023-03-13T15:33:01.723Z,4.5
2023-03-13T15:34:11.357Z,1.7
2023-03-13T15:35:21.019Z,3.2
2023-03-13T15:36:30.726Z,0.6
2023-03-13T15:37:39.388Z,0.4
2023-03-13T15:38:49.095Z,34.700001
2023-03-13T15:39:56.741Z,0.1
2023-03-13T15:41:05.403Z,0.4
2023-03-13T15:42:15.062Z,58.200001
2023-03-13T15:43:23.732Z,10.8
2023-03-13T15:44:31.394Z,0.8
2023-03-13T15:45:40.116Z,4.2
2023-03-13T15:46:49.784Z,0.3
2023-03-13T15:47:59.412Z,0.2
2023-03-13T15:49:07.088Z,0.2
2023-03-13T15:50:16.768Z,1
2023-03-13T15:51:26.432Z,1.3
2023-03-13T15:52:35.111Z,1.6
2023-03-13T15:53:44.780Z,3.3